Time;durP1;ratioP1;P1;durP2;ratioP2;P2;SDS_P1;SDS_P2;PMS_P1;PMS_P2;Temp;Humidity;BMP_temperature;BMP_pressure;BME280_temperature;BME280_humidity;BME280_pressure;Samples;Min_cycle;Max_cycle;Signal;HPM_P1;HPM_P2
2022/04/27 00:00:49;;;;;;;;;;;;;;;22.68;nan;95103.31;2059433;28;1164;-60
2022/04/27 00:01:51;;;;;;;;;;;;;;;22.68;nan;95098.78;2057339;28;1571;-59
2022/04/27 00:02:52;;;;;;;;;;;;;;;22.68;nan;95100.63;2059263;28;1007;-58
2022/04/27 00:03:54;;;;;;;;;;;;;;;22.68;nan;95103.31;2057416;28;1468;-58
2022/04/27 00:04:56;;;;;;;;;;;;;;;22.69;nan;95099.59;2061180;28;1439;-59
2022/04/27 00:05:58;;;;;;;;;;;;;;;22.68;nan;95101.47;2054027;28;1493;-58
2022/04/27 00:07:02;;;;;;;;;;;;;;;22.69;nan;95097.75;2059458;28;994;-59
2022/04/27 00:08:04;;;;;;;;;;;;;;;22.69;nan;95099.59;2059276;28;1026;-58
2022/04/27 00:09:06;;;;;;;;;;;;;;;22.68;nan;95095.28;2058933;28;1552;-61
2022/04/27 00:10:08;;;;;;;;;;;;;;;22.69;nan;95096.94;2058972;28;1654;-58
2022/04/27 00:11:09;;;;;;;;;;;;;;;22.69;nan;95091.56;2059093;28;1895;-58
2022/04/27 00:12:11;;;;;;;;;;;;;;;22.69;nan;95091.56;2057277;28;1440;-60
2022/04/27 00:13:16;;;;;;;;;;;;;;;22.70;nan;95098.56;2058853;28;1025;-58
2022/04/27 00:14:19;;;;;;;;;;;;;;;22.70;nan;95098.56;2062774;28;1541;-58
2022/04/27 00:15:23;;;;;;;;;;;;;;;22.69;nan;95097.75;2067192;28;1073;-59
2022/04/27 00:16:25;;;;;;;;;;;;;;;22.70;nan;95093.19;2054555;28;1481;-59
2022/04/27 00:17:26;;;;;;;;;;;;;;;22.70;nan;95095.88;2062470;28;1782;-60
2022/04/27 00:18:28;;;;;;;;;;;;;;;22.71;nan;95100.25;2061671;28;1712;-58
2022/04/27 00:19:29;;;;;;;;;;;;;;;22.70;nan;95095.88;2059302;28;2167;-60
2022/04/27 00:20:31;;;;;;;;;;;;;;;22.71;nan;95095.69;2058018;28;1438;-61
2022/04/27 00:21:33;;;;;;;;;;;;;;;22.71;nan;95098.38;2064536;28;1504;-59
2022/04/27 00:22:38;;;;;;;;;;;;;;;22.72;nan;95099.19;2058999;28;991;-58
2022/04/27 00:23:40;;;;;;;;;;;;;;;22.71;nan;95097.56;2058894;28;1690;-59
2022/04/27 00:24:42;;;;;;;;;;;;;;;22.71;nan;95098.38;2060508;28;1513;-59
2022/04/27 00:25:44;;;;;;;;;;;;;;;22.72;nan;95096.50;2063110;28;1697;-59
2022/04/27 00:26:46;;;;;;;;;;;;;;;22.72;nan;95091.97;2059193;28;1198;-56
2022/04/27 00:27:47;;;;;;;;;;;;;;;22.72;nan;95096.50;2053135;28;1117;-57
2022/04/27 00:28:49;;;;;;;;;;;;;;;22.72;nan;95093.84;2053142;28;1645;-59
2022/04/27 00:29:51;;;;;;;;;;;;;;;22.73;nan;95096.28;2057030;28;1688;-60
2022/04/27 00:30:52;;;;;;;;;;;;;;;22.73;nan;95098.13;2059180;28;1899;-60
2022/04/27 00:31:54;;;;;;;;;;;;;;;22.74;nan;95094.44;2058508;28;1626;-58
2022/04/27 00:32:56;;;;;;;;;;;;;;;22.74;nan;95091.75;2058633;28;1092;-60
2022/04/27 00:33:57;;;;;;;;;;;;;;;22.75;nan;95085.34;2056613;28;1685;-59
2022/04/27 00:35:00;;;;;;;;;;;;;;;22.75;nan;95085.34;2057820;28;1066;-59
2022/04/27 00:36:01;;;;;;;;;;;;;;;22.75;nan;95093.38;2057764;28;1881;-60
2022/04/27 00:37:03;;;;;;;;;;;;;;;22.74;nan;95089.91;2051096;28;1099;-59
2022/04/27 00:38:05;;;;;;;;;;;;;;;22.75;nan;95098.75;2050959;29;1024;-57
2022/04/27 00:39:06;;;;;;;;;;;;;;;22.76;nan;95092.34;2047142;28;1804;-57
2022/04/27 00:40:08;;;;;;;;;;;;;;;22.75;nan;95090.72;2053535;28;1909;-58
2022/04/27 00:41:11;;;;;;;;;;;;;;;22.76;nan;95092.34;2058256;28;1026;-59
2022/04/27 00:42:17;;;;;;;;;;;;;;;22.75;nan;95090.72;2058327;28;1014;-58
2022/04/27 00:43:38;;;;;;;;;;;;;;;22.74;nan;95091.75;2058762;28;930;-58
2022/04/27 00:44:43;;;;;;;;;;;;;;;22.76;nan;95097.69;2072086;28;1727;-58
2022/04/27 00:45:45;;;;;;;;;;;;;;;22.76;nan;95092.34;2073623;28;1175;-59
2022/04/27 00:46:47;;;;;;;;;;;;;;;22.77;nan;95099.34;2066814;28;1030;-58
2022/04/27 00:47:48;;;;;;;;;;;;;;;22.77;nan;95094.00;2066308;28;1172;-59
2022/04/27 00:48:50;;;;;;;;;;;;;;;22.77;nan;95094.00;2059156;28;1600;-59
2022/04/27 00:49:52;;;;;;;;;;;;;;;22.76;nan;95095.84;2055210;28;1632;-58
2022/04/27 00:50:54;;;;;;;;;;;;;;;22.77;nan;95094.00;2051243;28;1903;-59
2022/04/27 00:51:56;;;;;;;;;;;;;;;22.76;nan;95097.69;2057048;28;1066;-58
2022/04/27 00:52:59;;;;;;;;;;;;;;;22.75;nan;95091.53;2058470;28;1113;-60
2022/04/27 00:54:01;;;;;;;;;;;;;;;22.75;nan;95096.06;2058682;28;1608;-59
2022/04/27 00:55:02;;;;;;;;;;;;;;;22.75;nan;95093.38;2058019;28;1479;-59
2022/04/27 00:56:04;;;;;;;;;;;;;;;22.75;nan;95101.41;2058789;28;1635;-58
2022/04/27 00:57:06;;;;;;;;;;;;;;;22.75;nan;95098.75;2059112;28;1428;-58
2022/04/27 00:58:09;;;;;;;;;;;;;;;22.76;nan;95103.03;2066876;28;1075;-58
2022/04/27 00:59:11;;;;;;;;;;;;;;;22.75;nan;95096.88;2066692;28;1021;-58
2022/04/27 01:00:13;;;;;;;;;;;;;;;22.76;nan;95095.00;2058728;28;1591;-58
2022/04/27 01:01:16;;;;;;;;;;;;;;;22.76;nan;95100.38;2057191;28;1668;-58
2022/04/27 01:02:17;;;;;;;;;;;;;;;22.76;nan;95100.38;2049267;28;1663;-61
2022/04/27 01:03:19;;;;;;;;;;;;;;;22.76;nan;95097.69;2059443;28;1507;-59
2022/04/27 01:04:21;;;;;;;;;;;;;;;22.76;nan;95100.38;2058201;28;1676;-59
2022/04/27 01:05:23;;;;;;;;;;;;;;;22.75;nan;95096.06;2058635;28;1048;-58
2022/04/27 01:06:25;;;;;;;;;;;;;;;22.76;nan;95095.84;2058725;28;1034;-57
2022/04/27 01:07:28;;;;;;;;;;;;;;;22.75;nan;95091.53;2058523;28;1029;-59
2022/04/27 01:08:30;;;;;;;;;;;;;;;22.75;nan;95099.56;2058681;28;1005;-58
2022/04/27 01:09:32;;;;;;;;;;;;;;;22.75;nan;95096.88;2058024;28;1590;-58
2022/04/27 01:10:34;;;;;;;;;;;;;;;22.76;nan;95097.69;2065773;28;1528;-58
2022/04/27 01:11:35;;;;;;;;;;;;;;;22.75;nan;95093.38;2065042;28;1931;-58
2022/04/27 01:12:37;;;;;;;;;;;;;;;22.76;nan;95095.84;2066514;28;1104;-61
2022/04/27 01:13:39;;;;;;;;;;;;;;;22.76;nan;95095.00;2056970;28;1680;-61
2022/04/27 01:14:41;;;;;;;;;;;;;;;22.76;nan;95092.34;2053421;28;1614;-58
2022/04/27 01:15:43;;;;;;;;;;;;;;;22.76;nan;95092.34;2058814;28;1110;-59
2022/04/27 01:16:55;;;;;;;;;;;;;;;22.76;nan;95095.00;2057470;28;1526;-59
2022/04/27 01:17:57;;;;;;;;;;;;;;;22.78;nan;95095.63;2058672;28;1069;-58
2022/04/27 01:18:59;;;;;;;;;;;;;;;22.77;nan;95094.00;2061620;28;1516;-60
2022/04/27 01:20:00;;;;;;;;;;;;;;;22.77;nan;95092.13;2060512;28;1597;-59
2022/04/27 01:21:03;;;;;;;;;;;;;;;22.78;nan;95090.25;2058597;28;1296;-58
2022/04/27 01:22:04;;;;;;;;;;;;;;;22.78;nan;95087.59;2074289;28;1015;-59
2022/04/27 01:23:06;;;;;;;;;;;;;;;22.77;nan;95085.94;2071083;28;1528;-58
2022/04/27 01:24:08;;;;;;;;;;;;;;;22.77;nan;95088.63;2050859;28;1070;-59
2022/04/27 01:25:10;;;;;;;;;;;;;;;22.78;nan;95084.91;2041503;28;1213;-62
2022/04/27 01:26:12;;;;;;;;;;;;;;;22.79;nan;95084.69;2064640;28;1633;-60
2022/04/27 01:27:13;;;;;;;;;;;;;;;22.79;nan;95086.53;2064286;28;1571;-60
2022/04/27 01:28:16;;;;;;;;;;;;;;;22.79;nan;95087.38;2066575;28;1088;-59
2022/04/27 01:29:18;;;;;;;;;;;;;;;22.79;nan;95084.69;2066669;28;1033;-58
2022/04/27 01:30:20;;;;;;;;;;;;;;;22.80;nan;95090.88;2058315;28;1703;-58
2022/04/27 01:31:22;;;;;;;;;;;;;;;22.80;nan;95088.19;2058178;28;1975;-59
2022/04/27 01:32:23;;;;;;;;;;;;;;;22.82;nan;95093.31;2057168;28;1578;-61
2022/04/27 01:33:25;;;;;;;;;;;;;;;22.81;nan;95086.31;2058152;28;1022;-60
2022/04/27 01:34:27;;;;;;;;;;;;;;;22.79;nan;95076.66;2057878;28;1280;-60
2022/04/27 01:35:29;;;;;;;;;;;;;;;22.80;nan;95085.50;2065881;28;1595;-60
2022/04/27 01:36:31;;;;;;;;;;;;;;;22.82;nan;95087.94;2052019;28;1669;-61
2022/04/27 01:38:53;;;;;;;;;;;;;;;22.81;nan;95087.13;2058557;28;1662;-58
2022/04/27 01:39:55;;;;;;;;;;;;;;;22.80;nan;95085.50;2058145;28;1620;-60
2022/04/27 01:40:56;;;;;;;;;;;;;;;22.81;nan;95084.44;2056753;28;1495;-59
2022/04/27 01:41:59;;;;;;;;;;;;;;;22.80;nan;95088.19;2058042;28;1077;-59
2022/04/27 01:43:01;;;;;;;;;;;;;;;22.80;nan;95082.81;2058478;28;1090;-59
2022/04/27 01:44:06;;;;;;;;;;;;;;;22.81;nan;95089.00;2061686;28;1727;-59
2022/04/27 01:45:07;;;;;;;;;;;;;;;22.82;nan;95086.06;2066285;28;937;-59
2022/04/27 01:46:09;;;;;;;;;;;;;;;22.81;nan;95081.78;2066563;28;1180;-59
2022/04/27 01:47:11;;;;;;;;;;;;;;;22.81;nan;95089.00;2059498;28;1539;-60
2022/04/27 01:48:13;;;;;;;;;;;;;;;22.80;nan;95082.81;2061319;28;1213;-59
2022/04/27 01:49:14;;;;;;;;;;;;;;;22.81;nan;95089.00;2066075;28;1034;-59
2022/04/27 01:50:16;;;;;;;;;;;;;;;22.80;nan;95088.19;2059147;28;1705;-59
2022/04/27 01:51:18;;;;;;;;;;;;;;;22.81;nan;95079.09;2058217;28;1157;-59
2022/04/27 01:55:00;;;;;;;;;;;;;;;22.80;nan;95088.19;2066396;28;1029;-61
2022/04/27 01:56:03;;;;;;;;;;;;;;;22.80;nan;95080.16;2066023;28;1018;-59
2022/04/27 01:57:04;;;;;;;;;;;;;;;22.80;nan;95082.81;2066761;28;1014;-63
2022/04/27 01:58:06;;;;;;;;;;;;;;;22.79;nan;95076.66;2067104;28;1121;-63
2022/04/27 01:59:08;;;;;;;;;;;;;;;22.80;nan;95077.47;2057199;28;1140;-62
2022/04/27 02:00:10;;;;;;;;;;;;;;;22.80;nan;95077.47;2059975;28;1739;-63
2022/04/27 02:01:12;;;;;;;;;;;;;;;22.79;nan;95082.00;2057609;28;1590;-61
2022/04/27 02:02:13;;;;;;;;;;;;;;;22.79;nan;95078.50;2056482;28;1655;-64
2022/04/27 02:03:15;;;;;;;;;;;;;;;22.79;nan;95073.13;2058340;28;1084;-64
2022/04/27 02:04:17;;;;;;;;;;;;;;;22.81;nan;95078.28;2057766;28;1081;-64
2022/04/27 02:05:19;;;;;;;;;;;;;;;22.81;nan;95071.06;2060643;28;1540;-64
2022/04/27 02:06:21;;;;;;;;;;;;;;;22.81;nan;95076.41;2066179;28;959;-63
2022/04/27 02:07:22;;;;;;;;;;;;;;;22.82;nan;95070.00;2058059;28;1690;-64
2022/04/27 02:08:24;;;;;;;;;;;;;;;22.81;nan;95071.06;2060759;28;1648;-64
2022/04/27 02:09:25;;;;;;;;;;;;;;;22.82;nan;95072.69;2073343;28;1658;-64
2022/04/27 02:10:27;;;;;;;;;;;;;;;22.82;nan;95066.50;2049882;28;1681;-63
2022/04/27 02:11:29;;;;;;;;;;;;;;;22.82;nan;95069.19;2057568;28;1163;-64
2022/04/27 02:12:30;;;;;;;;;;;;;;;22.82;nan;95070.00;2073397;28;1973;-63
2022/04/27 02:13:33;;;;;;;;;;;;;;;22.82;nan;95072.69;2072436;28;1551;-63
2022/04/27 02:14:35;;;;;;;;;;;;;;;22.83;nan;95071.66;2050056;28;1539;-63
2022/04/27 02:15:37;;;;;;;;;;;;;;;22.82;nan;95072.69;2057777;28;1659;-63
2022/04/27 02:16:39;;;;;;;;;;;;;;;22.82;nan;95072.69;2058129;28;1089;-63
2022/04/27 02:17:41;;;;;;;;;;;;;;;22.82;nan;95072.69;2057733;28;1681;-63
2022/04/27 02:18:43;;;;;;;;;;;;;;;22.83;nan;95073.53;2057882;28;1120;-63
2022/04/27 02:19:44;;;;;;;;;;;;;;;22.82;nan;95070.00;2057703;28;1330;-63
2022/04/27 02:20:46;;;;;;;;;;;;;;;22.83;nan;95071.66;2065153;28;1474;-63
2022/04/27 02:21:47;;;;;;;;;;;;;;;22.83;nan;95079.69;2057690;28;1086;-61
2022/04/27 02:22:50;;;;;;;;;;;;;;;22.82;nan;95080.72;2059520;28;1909;-63
2022/04/27 02:23:51;;;;;;;;;;;;;;;22.83;nan;95078.88;2050226;28;1112;-63
2022/04/27 02:24:53;;;;;;;;;;;;;;;22.83;nan;95071.66;2052994;28;1666;-63
2022/04/27 02:25:57;;;;;;;;;;;;;;;22.83;nan;95077.03;2057925;28;1085;-63
2022/04/27 02:26:58;;;;;;;;;;;;;;;22.83;nan;95074.34;2058084;28;1267;-62
2022/04/27 02:28:00;;;;;;;;;;;;;;;22.83;nan;95070.84;2057777;28;1646;-63
2022/04/27 02:29:02;;;;;;;;;;;;;;;22.83;nan;95077.03;2058342;28;1014;-63
2022/04/27 02:30:04;;;;;;;;;;;;;;;22.83;nan;95074.34;2058194;28;786;-62
2022/04/27 02:31:07;;;;;;;;;;;;;;;22.83;nan;95077.03;2058630;28;1002;-63
2022/04/27 02:32:09;;;;;;;;;;;;;;;22.84;nan;95075.16;2058062;28;1907;-63
2022/04/27 02:33:10;;;;;;;;;;;;;;;22.83;nan;95066.31;2051282;28;1566;-64
2022/04/27 02:34:12;;;;;;;;;;;;;;;22.87;nan;95072.84;2064836;28;1086;-64
2022/04/27 02:35:14;;;;;;;;;;;;;;;22.91;nan;95076.72;2065338;28;1018;-65
2022/04/27 02:36:16;;;;;;;;;;;;;;;22.92;nan;95075.66;2061612;28;1697;-65
2022/04/27 02:37:17;;;;;;;;;;;;;;;22.94;nan;95073.59;2056916;28;1694;-64
2022/04/27 02:38:19;;;;;;;;;;;;;;;22.95;nan;95080.56;2064228;28;1662;-65
2022/04/27 02:39:21;;;;;;;;;;;;;;;22.97;nan;95083.03;2065206;28;1022;-66
2022/04/27 02:40:23;;;;;;;;;;;;;;;22.93;nan;95077.28;2057477;28;986;-62
2022/04/27 02:41:24;;;;;;;;;;;;;;;22.91;nan;95073.22;2058314;28;1030;-62
2022/04/27 02:42:26;;;;;;;;;;;;;;;22.90;nan;95076.94;2057802;28;833;-62
2022/04/27 02:43:28;;;;;;;;;;;;;;;22.87;nan;95078.19;2057203;28;1529;-62
2022/04/27 02:44:29;;;;;;;;;;;;;;;22.86;nan;95079.25;2058060;28;1197;-59
2022/04/27 02:45:31;;;;;;;;;;;;;;;22.84;nan;95078.66;2064847;28;1513;-62
2022/04/27 02:46:33;;;;;;;;;;;;;;;22.85;nan;95072.25;2066159;28;1083;-63
2022/04/27 02:47:34;;;;;;;;;;;;;;;22.85;nan;95079.44;2063241;28;1571;-61
2022/04/27 02:51:48;;;;;;;;;;;;;;;22.84;nan;95073.28;2060681;28;1661;-61
2022/04/27 02:52:38;;;;;;;;;;;;;;;22.86;nan;95076.56;2057169;28;1911;-63
2022/04/27 02:53:40;;;;;;;;;;;;;;;22.91;nan;95076.72;2056816;28;1661;-62
2022/04/27 02:54:41;;;;;;;;;;;;;;;22.99;nan;95075.56;2064705;28;1545;-62
2022/04/27 02:55:43;;;;;;;;;;;;;;;23.02;nan;95070.59;2060259;28;1100;-63
2022/04/27 02:56:46;;;;;;;;;;;;;;;23.02;nan;95070.59;2062266;28;1157;-63
2022/04/27 02:57:47;;;;;;;;;;;;;;;23.07;nan;95071.78;2063773;28;1633;-63
2022/04/27 02:58:49;;;;;;;;;;;;;;;23.07;nan;95071.78;2057861;28;1145;-63
2022/04/27 02:59:51;;;;;;;;;;;;;;;23.09;nan;95070.50;2057788;28;1569;-63
2022/04/27 03:00:53;;;;;;;;;;;;;;;23.12;nan;95072.72;2056878;28;1503;-63
2022/04/27 03:01:54;;;;;;;;;;;;;;;23.14;nan;95067.16;2065632;28;1352;-64
2022/04/27 03:02:57;;;;;;;;;;;;;;;23.12;nan;95080.78;2065732;28;1030;-63
2022/04/27 03:03:58;;;;;;;;;;;;;;;20.74;nan;95071.75;2065602;28;977;-67
2022/04/27 03:05:00;;;;;;;;;;;;;;;19.27;nan;95070.16;2064615;28;1129;-63
2022/04/27 03:06:02;;;;;;;;;;;;;;;18.53;nan;95076.22;2065282;28;891;-63
2022/04/27 03:07:04;;;;;;;;;;;;;;;18.04;nan;95080.63;2057301;28;1195;-62
2022/04/27 03:08:05;;;;;;;;;;;;;;;17.65;nan;95078.44;2059082;28;1687;-63
2022/04/27 03:09:07;;;;;;;;;;;;;;;17.41;nan;95077.00;2062232;28;1634;-63
2022/04/27 03:10:09;;;;;;;;;;;;;;;17.28;nan;95076.88;2059866;28;1605;-62
2022/04/27 03:11:10;;;;;;;;;;;;;;;17.12;nan;95084.06;2057593;28;1697;-61
2022/04/27 03:12:12;;;;;;;;;;;;;;;17.12;nan;95073.44;2056725;28;1289;-63
2022/04/27 03:13:14;;;;;;;;;;;;;;;16.99;nan;95075.97;2057264;28;1092;-62
2022/04/27 03:14:15;;;;;;;;;;;;;;;16.77;nan;95081.19;2064228;28;1503;-63
2022/04/27 03:15:17;;;;;;;;;;;;;;;16.59;nan;95077.28;2065755;28;1081;-63
2022/04/27 03:16:19;;;;;;;;;;;;;;;16.71;nan;95076.63;2057555;28;1590;-62
2022/04/27 03:17:20;;;;;;;;;;;;;;;16.79;nan;95077.56;2061621;28;1606;-63
2022/04/27 03:18:23;;;;;;;;;;;;;;;16.86;nan;95081.94;2050758;28;1597;-60
2022/04/27 03:19:25;;;;;;;;;;;;;;;16.83;nan;95084.97;2060912;28;1454;-62
2022/04/27 03:20:26;;;;;;;;;;;;;;;16.70;nan;95084.78;2062604;28;1526;-62
2022/04/27 03:21:29;;;;;;;;;;;;;;;16.60;nan;95079.75;2065537;28;1160;-62
2022/04/27 03:22:31;;;;;;;;;;;;;;;16.46;nan;95089.38;2064451;28;1629;-62
2022/04/27 03:23:32;;;;;;;;;;;;;;;16.28;nan;95087.09;2057406;28;1689;-62
2022/04/27 03:24:34;;;;;;;;;;;;;;;16.35;nan;95091.66;2064473;28;1765;-63
2022/04/27 03:25:36;;;;;;;;;;;;;;;16.23;nan;95094.78;2056354;28;1859;-63
2022/04/27 03:26:38;;;;;;;;;;;;;;;16.35;nan;95095.13;2056984;28;1592;-64
2022/04/27 03:27:39;;;;;;;;;;;;;;;16.14;nan;95089.75;2055948;28;1431;-63
2022/04/27 03:28:41;;;;;;;;;;;;;;;15.96;nan;95096.22;2057628;28;1038;-63
2022/04/27 03:29:43;;;;;;;;;;;;;;;16.05;nan;95091.66;2049919;28;1678;-62
2022/04/27 03:30:44;;;;;;;;;;;;;;;16.00;nan;95099.34;2061130;28;1761;-63
2022/04/27 03:31:46;;;;;;;;;;;;;;;16.18;nan;95094.50;2064454;28;1428;-63
2022/04/27 03:32:48;;;;;;;;;;;;;;;16.24;nan;95096.41;2049323;28;1984;-63
2022/04/27 03:33:49;;;;;;;;;;;;;;;16.04;nan;95100.59;2049412;28;1050;-63
2022/04/27 03:34:51;;;;;;;;;;;;;;;15.85;nan;95097.47;2049199;28;1097;-63
2022/04/27 03:35:52;;;;;;;;;;;;;;;15.95;nan;95102.50;2049429;29;1089;-63
2022/04/27 03:36:54;;;;;;;;;;;;;;;15.97;nan;95097.88;2050890;28;1653;-63
2022/04/27 03:37:58;;;;;;;;;;;;;;;15.98;nan;95096.84;2058384;28;1653;-63
2022/04/27 03:38:59;;;;;;;;;;;;;;;15.81;nan;95104.13;2065512;28;1303;-63
2022/04/27 03:40:01;;;;;;;;;;;;;;;15.81;nan;95098.00;2056000;28;1682;-63
2022/04/27 03:41:03;;;;;;;;;;;;;;;15.72;nan;95101.72;2045999;28;1050;-62
2022/04/27 03:42:04;;;;;;;;;;;;;;;15.78;nan;95107.13;2054073;28;1561;-65
2022/04/27 03:43:06;;;;;;;;;;;;;;;15.75;nan;95099.50;2056576;28;1704;-63
2022/04/27 03:44:07;;;;;;;;;;;;;;;15.63;nan;95099.13;2063977;28;1491;-63
2022/04/27 03:45:09;;;;;;;;;;;;;;;15.57;nan;95104.31;2065416;28;1093;-63
2022/04/27 03:46:11;;;;;;;;;;;;;;;15.63;nan;95103.59;2057110;28;1658;-62
2022/04/27 03:47:15;;;;;;;;;;;;;;;15.86;nan;95107.06;2056919;28;979;-62
2022/04/27 03:48:17;;;;;;;;;;;;;;;15.83;nan;95110.06;2057260;28;1541;-63
2022/04/27 03:49:18;;;;;;;;;;;;;;;15.74;nan;95111.13;2058261;28;1542;-68
2022/04/27 03:50:20;;;;;;;;;;;;;;;15.99;nan;95108.28;2065607;28;983;-65
2022/04/27 03:51:22;;;;;;;;;;;;;;;15.87;nan;95115.84;2060755;28;1661;-64
2022/04/27 03:52:24;;;;;;;;;;;;;;;15.60;nan;95115.38;2050277;28;1636;-60
2022/04/27 03:53:26;;;;;;;;;;;;;;;15.51;nan;95120.91;2055795;28;1965;-64
2022/04/27 03:54:28;;;;;;;;;;;;;;;15.70;nan;95120.41;2057094;28;1857;-64
2022/04/27 03:55:33;;;;;;;;;;;;;;;16.57;nan;95113.81;2060109;28;1512;-64
2022/04/27 03:56:35;;;;;;;;;;;;;;;16.21;nan;95115.34;2057401;28;1668;-64
2022/04/27 03:57:40;;;;;;;;;;;;;;;16.19;nan;95119.16;2060753;28;1481;-65
2022/04/27 03:58:41;;;;;;;;;;;;;;;15.82;nan;95119.03;2058149;28;1484;-64
2022/04/27 03:59:43;;;;;;;;;;;;;;;15.60;nan;95125.16;2060194;28;1681;-64
2022/04/27 04:00:45;;;;;;;;;;;;;;;15.65;nan;95122.78;2055598;28;1698;-64
2022/04/27 04:01:47;;;;;;;;;;;;;;;15.61;nan;95121.50;2055959;28;1580;-63
2022/04/27 04:02:48;;;;;;;;;;;;;;;15.68;nan;95125.09;2057390;28;1795;-64
2022/04/27 04:03:50;;;;;;;;;;;;;;;15.85;nan;95121.31;2048486;28;1361;-62
2022/04/27 04:04:52;;;;;;;;;;;;;;;15.62;nan;95121.31;2057535;28;1159;-63
2022/04/27 04:05:54;;;;;;;;;;;;;;;15.34;nan;95126.31;2057140;28;1303;-65
2022/04/27 04:06:56;;;;;;;;;;;;;;;15.32;nan;95128.31;2057796;28;1088;-64
2022/04/27 04:07:57;;;;;;;;;;;;;;;15.55;nan;95127.50;2057304;28;1462;-65
2022/04/27 04:08:59;;;;;;;;;;;;;;;15.28;nan;95129.69;2056629;28;1721;-63
2022/04/27 04:10:01;;;;;;;;;;;;;;;15.11;nan;95136.91;2056283;28;1650;-63
2022/04/27 04:11:03;;;;;;;;;;;;;;;15.14;nan;95136.53;2054173;28;1846;-64
2022/04/27 04:12:05;;;;;;;;;;;;;;;15.28;nan;95134.97;2057379;28;1533;-67
2022/04/27 04:13:07;;;;;;;;;;;;;;;15.37;nan;95135.75;2057241;28;1910;-64
2022/04/27 04:14:08;;;;;;;;;;;;;;;15.33;nan;95137.06;2062351;28;1531;-65
2022/04/27 04:15:10;;;;;;;;;;;;;;;15.25;nan;95140.63;2055273;28;1786;-62
2022/04/27 04:16:12;;;;;;;;;;;;;;;15.24;nan;95141.59;2064755;28;1137;-63
2022/04/27 04:17:13;;;;;;;;;;;;;;;15.38;nan;95140.03;2061841;28;1738;-65
2022/04/27 04:18:15;;;;;;;;;;;;;;;15.48;nan;95145.09;2057132;28;1125;-63
2022/04/27 04:19:17;;;;;;;;;;;;;;;15.28;nan;95142.91;2057087;28;1343;-64
2022/04/27 04:20:18;;;;;;;;;;;;;;;15.36;nan;95144.66;2056707;28;1090;-64
2022/04/27 04:21:20;;;;;;;;;;;;;;;15.33;nan;95151.13;2056653;28;998;-64
2022/04/27 04:22:21;;;;;;;;;;;;;;;15.22;nan;95148.06;2057239;28;1660;-65
2022/04/27 04:23:23;;;;;;;;;;;;;;;15.22;nan;95146.25;2061485;28;1561;-64
2022/04/27 04:24:25;;;;;;;;;;;;;;;14.96;nan;95149.19;2060878;28;1524;-64
2022/04/27 04:29:31;;;;;;;;;;;;;;;14.38;nan;95139.81;2056945;28;1024;-65
2022/04/27 04:30:33;;;;;;;;;;;;;;;14.40;nan;95154.53;2057775;28;1022;-64
2022/04/27 04:31:35;;;;;;;;;;;;;;;14.32;nan;95149.25;2057172;28;1022;-65
2022/04/27 04:32:41;;;;;;;;;;;;;;;14.25;nan;95150.91;2057350;28;1137;-64
2022/04/27 04:33:42;;;;;;;;;;;;;;;14.28;nan;95148.78;2057140;28;1938;-64
2022/04/27 04:34:44;;;;;;;;;;;;;;;14.27;nan;95156.84;2057437;28;1072;-64
2022/04/27 04:35:46;;;;;;;;;;;;;;;14.18;nan;95149.94;2057519;28;1207;-65
2022/04/27 04:36:48;;;;;;;;;;;;;;;14.26;nan;95150.75;2057368;28;1037;-64
2022/04/27 04:37:50;;;;;;;;;;;;;;;14.23;nan;95158.19;2049873;28;1094;-64
2022/04/27 04:38:51;;;;;;;;;;;;;;;14.21;nan;95155.72;2055711;28;1180;-64
2022/04/27 04:39:53;;;;;;;;;;;;;;;14.22;nan;95157.34;2057245;28;1011;-64
2022/04/27 04:40:58;;;;;;;;;;;;;;;14.17;nan;95164.13;2056948;28;1274;-64
2022/04/27 04:42:00;;;;;;;;;;;;;;;14.17;nan;95159.69;2056607;28;1274;-64
2022/04/27 04:43:02;;;;;;;;;;;;;;;14.16;nan;95159.84;2056453;28;805;-64
2022/04/27 04:44:03;;;;;;;;;;;;;;;14.15;nan;95161.66;2056645;28;1054;-64
2022/04/27 04:45:05;;;;;;;;;;;;;;;14.23;nan;95164.31;2056523;28;1077;-64
2022/04/27 04:46:07;;;;;;;;;;;;;;;14.22;nan;95167.09;2057005;28;1109;-64
2022/04/27 04:47:10;;;;;;;;;;;;;;;14.30;nan;95164.44;2057841;28;1038;-64
2022/04/27 04:48:11;;;;;;;;;;;;;;;14.26;nan;95163.16;2058071;28;1105;-64
2022/04/27 04:49:13;;;;;;;;;;;;;;;14.19;nan;95165.63;2049725;28;1380;-63
2022/04/27 04:50:14;;;;;;;;;;;;;;;14.23;nan;95164.31;2057217;28;1018;-64
2022/04/27 04:51:16;;;;;;;;;;;;;;;14.21;nan;95170.75;2057991;28;1153;-64
2022/04/27 04:52:35;;;;;;;;;;;;;;;14.20;nan;95171.75;2058193;28;1104;-64
2022/04/27 04:53:36;;;;;;;;;;;;;;;14.29;nan;95168.91;2057805;28;1952;-66
2022/04/27 04:54:38;;;;;;;;;;;;;;;14.23;nan;95168.78;2058363;28;1010;-65
2022/04/27 04:55:40;;;;;;;;;;;;;;;14.18;nan;95171.09;2058023;28;1300;-65
2022/04/27 04:56:41;;;;;;;;;;;;;;;14.21;nan;95178.69;2058708;28;1121;-65
2022/04/27 04:57:43;;;;;;;;;;;;;;;14.21;nan;95176.84;2058623;28;1050;-65
2022/04/27 04:58:45;;;;;;;;;;;;;;;14.22;nan;95175.03;2059249;28;1195;-65
2022/04/27 04:59:46;;;;;;;;;;;;;;;14.20;nan;95175.22;2073345;28;1176;-65
2022/04/27 05:00:48;;;;;;;;;;;;;;;14.24;nan;95173.06;2066391;28;1536;-65
2022/04/27 05:01:50;;;;;;;;;;;;;;;14.22;nan;95177.66;2058574;28;1216;-64
2022/04/27 05:02:51;;;;;;;;;;;;;;;14.26;nan;95179.81;2058485;28;1382;-64
2022/04/27 05:03:53;;;;;;;;;;;;;;;14.23;nan;95180.16;2058892;28;1073;-64
2022/04/27 05:04:55;;;;;;;;;;;;;;;14.34;nan;95180.78;2058788;28;1037;-64
2022/04/27 05:05:56;;;;;;;;;;;;;;;14.41;nan;95182.59;2058820;28;998;-65
2022/04/27 05:06:58;;;;;;;;;;;;;;;14.50;nan;95180.75;2058788;28;1114;-64
2022/04/27 05:07:59;;;;;;;;;;;;;;;14.37;nan;95181.28;2058668;28;999;-64
2022/04/27 05:09:01;;;;;;;;;;;;;;;14.38;nan;95171.53;2058340;28;1600;-64
2022/04/27 05:10:04;;;;;;;;;;;;;;;14.39;nan;95178.47;2058659;28;963;-65
2022/04/27 05:11:06;;;;;;;;;;;;;;;14.64;nan;95179.22;2058521;28;1159;-65
2022/04/27 05:12:12;;;;;;;;;;;;;;;14.70;nan;95176.75;2052018;28;1074;-64
2022/04/27 05:13:13;;;;;;;;;;;;;;;14.50;nan;95176.28;2058390;28;1461;-65
2022/04/27 05:14:15;;;;;;;;;;;;;;;14.47;nan;95178.44;2058789;28;1902;-64
2022/04/27 05:15:17;;;;;;;;;;;;;;;14.27;nan;95176.19;2058555;28;1022;-64
2022/04/27 05:16:18;;;;;;;;;;;;;;;14.31;nan;95179.28;2073449;28;1336;-64
2022/04/27 05:17:21;;;;;;;;;;;;;;;14.35;nan;95172.69;2073716;28;1065;-64
2022/04/27 05:18:22;;;;;;;;;;;;;;;14.38;nan;95180.28;2058545;28;1021;-65
2022/04/27 05:19:24;;;;;;;;;;;;;;;14.41;nan;95182.59;2058476;28;1187;-64
2022/04/27 05:20:25;;;;;;;;;;;;;;;14.42;nan;95181.59;2058699;28;1188;-64
2022/04/27 05:21:27;;;;;;;;;;;;;;;14.36;nan;95179.63;2066058;28;1862;-63
2022/04/27 05:22:32;;;;;;;;;;;;;;;14.42;nan;95173.66;2065328;28;1288;-62
2022/04/27 05:23:34;;;;;;;;;;;;;;;14.37;nan;95186.59;2052088;28;1127;-63
2022/04/27 05:24:36;;;;;;;;;;;;;;;14.36;nan;95178.81;2058539;28;1535;-63
2022/04/27 05:25:38;;;;;;;;;;;;;;;14.48;nan;95178.28;2065984;28;1070;-63
2022/04/27 05:26:39;;;;;;;;;;;;;;;14.48;nan;95178.28;2065893;28;1029;-64
2022/04/27 05:27:44;;;;;;;;;;;;;;;14.42;nan;95181.59;2058437;28;1018;-63
2022/04/27 05:32:46;;;;;;;;;;;;;;;14.94;nan;95178.50;2058753;28;1028;-63
2022/04/27 05:33:48;;;;;;;;;;;;;;;15.01;nan;95183.09;2058396;28;1981;-63
2022/04/27 05:34:52;;;;;;;;;;;;;;;15.30;nan;95185.91;2050549;28;1355;-63
2022/04/27 05:35:54;;;;;;;;;;;;;;;15.22;nan;95180.66;2058290;28;1322;-63
2022/04/27 05:36:56;;;;;;;;;;;;;;;15.17;nan;95180.38;2058808;28;1004;-63
2022/04/27 05:37:58;;;;;;;;;;;;;;;15.11;nan;95176.59;2058067;28;1659;-63
2022/04/27 05:38:59;;;;;;;;;;;;;;;15.15;nan;95179.72;2058631;28;1017;-63
2022/04/27 05:40:01;;;;;;;;;;;;;;;15.21;nan;95189.59;2058542;28;1025;-64
2022/04/27 05:41:03;;;;;;;;;;;;;;;15.21;nan;95184.31;2058477;28;1270;-63
2022/04/27 05:42:06;;;;;;;;;;;;;;;15.61;nan;95185.06;2058709;28;1105;-63
2022/04/27 05:43:09;;;;;;;;;;;;;;;15.83;nan;95184.25;2058467;28;986;-63
2022/04/27 05:44:12;;;;;;;;;;;;;;;15.76;nan;95186.00;2058596;28;1084;-63
2022/04/27 05:45:14;;;;;;;;;;;;;;;15.96;nan;95188.13;2057463;28;1006;-64
2022/04/27 05:46:16;;;;;;;;;;;;;;;16.30;nan;95185.84;2051269;28;1683;-63
2022/04/27 05:47:17;;;;;;;;;;;;;;;16.53;nan;95174.34;2057883;28;1313;-63
2022/04/27 05:48:19;;;;;;;;;;;;;;;16.62;nan;95183.88;2058581;28;1003;-63
2022/04/27 05:49:21;;;;;;;;;;;;;;;16.68;nan;95175.19;2058550;28;1030;-63
2022/04/27 05:50:22;;;;;;;;;;;;;;;16.60;nan;95179.75;2074190;28;1018;-64
2022/04/27 05:51:24;;;;;;;;;;;;;;;16.49;nan;95183.66;2073583;28;1092;-63
2022/04/27 05:52:26;;;;;;;;;;;;;;;16.61;nan;95178.72;2058528;28;1067;-64